Time;durP1;ratioP1;P1;durP2;ratioP2;P2;SDS_P1;SDS_P2;PMS_P1;PMS_P2;Temp;Humidity;BMP_temperature;BMP_pressure;BME280_temperature;BME280_humidity;BME280_pressure;Samples;Min_cycle;Max_cycle;Signal;HPM_P1;HPM_P2
2022/04/01 00:00:13;;;;;;;9.35;8.45;;;;;;;18.68;28.66;98814.84;5052371;28;20064;-73
2022/04/01 00:02:39;;;;;;;10.52;9.05;;;;;;;18.70;28.62;98820.84;5052301;28;20450;-69
2022/04/01 00:05:06;;;;;;;11.63;8.75;;;;;;;18.75;28.43;98822.94;5054915;28;20033;-69
2022/04/01 00:07:32;;;;;;;10.18;9.10;;;;;;;18.77;28.52;98823.59;5055420;28;20039;-71
2022/04/01 00:09:57;;;;;;;9.85;8.80;;;;;;;18.79;28.59;98818.88;5056057;28;20056;-70
2022/04/01 00:12:23;;;;;;;11.02;9.23;;;;;;;18.81;28.64;98821.38;5056276;28;20064;-69
2022/04/01 00:14:48;;;;;;;10.20;9.10;;;;;;;18.86;28.49;98818.94;5056442;28;20091;-70
2022/04/01 00:17:14;;;;;;;10.70;9.60;;;;;;;18.91;28.30;98819.19;5056070;28;20440;-70
2022/04/01 00:19:39;;;;;;;10.63;9.05;;;;;;;18.91;28.27;98825.38;5055900;28;20024;-69
2022/04/01 00:22:06;;;;;;;8.98;7.93;;;;;;;18.92;28.40;98821.66;5054932;28;20455;-70
2022/04/01 00:24:32;;;;;;;9.65;8.65;;;;;;;18.97;28.13;98826.47;5056207;28;20052;-70
2022/04/01 00:26:58;;;;;;;9.55;8.55;;;;;;;18.98;28.12;98817.41;5055461;28;20041;-69
2022/04/01 00:29:24;;;;;;;9.70;8.25;;;;;;;19.05;27.95;98823.69;5055874;28;20539;-69
2022/04/01 00:32:09;;;;;;;10.23;8.40;;;;;;;19.10;27.92;98825.78;5055783;28;20202;-69
2022/04/01 00:34:36;;;;;;;9.73;8.35;;;;;;;19.11;28.00;98824.75;5041317;28;20041;-70
2022/04/01 00:37:03;;;;;;;9.93;7.97;;;;;;;19.14;27.93;98820.84;5055586;28;20035;-70
2022/04/01 00:39:31;;;;;;;8.77;7.88;;;;;;;19.15;27.86;98819.81;5055153;28;20029;-69
2022/04/01 00:42:01;;;;;;;8.85;7.95;;;;;;;19.18;27.83;98822.97;5039467;28;20404;-69
2022/04/01 00:44:32;;;;;;;8.77;7.88;;;;;;;19.19;27.84;98827.28;5055885;28;20086;-68
2022/04/01 00:47:03;;;;;;;9.60;7.85;;;;;;;19.23;27.72;98830.44;5055971;28;20106;-68
2022/04/01 00:49:29;;;;;;;9.70;8.35;;;;;;;19.23;27.65;98830.44;5055825;28;20064;-68
2022/04/01 00:51:57;;;;;;;8.70;7.80;;;;;;;19.27;27.75;98830.84;5055168;28;20058;-69
2022/04/01 00:54:24;;;;;;;9.27;6.93;;;;;;;19.27;27.46;98841.59;5055060;28;20029;-69
2022/04/01 00:56:49;;;;;;;9.93;7.85;;;;;;;19.30;27.44;98831.28;5055073;28;20450;-68
2022/04/01 00:59:15;;;;;;;9.13;7.82;;;;;;;19.33;27.58;98832.78;5055214;28;20126;-67
2022/04/01 01:01:44;;;;;;;8.13;7.28;;;;;;;19.33;27.60;98830.09;5054668;28;20506;-67
2022/04/01 01:04:15;;;;;;;8.20;7.38;;;;;;;19.36;27.50;98827.00;5055097;28;20051;-68
2022/04/01 01:06:51;;;;;;;9.73;7.85;;;;;;;19.36;27.47;98835.88;5055199;28;20048;-70
2022/04/01 01:09:19;;;;;;;9.40;7.78;;;;;;;19.38;27.49;98835.69;5036908;28;20033;-69
2022/04/01 01:11:45;;;;;;;8.23;7.18;;;;;;;19.39;27.30;98841.88;5046705;28;20025;-69
2022/04/01 01:14:13;;;;;;;9.65;8.05;;;;;;;19.41;27.41;98840.66;5055027;28;20033;-72
2022/04/01 01:16:41;;;;;;;8.65;7.32;;;;;;;19.43;27.50;98835.94;5037199;28;20036;-68
2022/04/01 01:19:18;;;;;;;7.53;6.72;;;;;;;19.33;27.86;98851.53;5055253;28;20037;-66
2022/04/01 01:21:45;;;;;;;9.10;7.15;;;;;;;18.99;28.41;98845.88;5055039;28;20488;-66
2022/04/01 01:24:16;;;;;;;7.47;6.35;;;;;;;18.66;28.85;98842.88;5045484;28;20067;-68
2022/04/01 01:26:52;;;;;;;7.75;6.85;;;;;;;18.40;29.38;98844.25;5054768;28;20055;-69
2022/04/01 01:29:25;;;;;;;6.95;5.68;;;;;;;18.12;29.94;98844.94;5052413;28;20044;-68
2022/04/01 01:31:52;;;;;;;7.22;6.45;;;;;;;17.94;30.18;98839.97;5038366;28;20504;-72
2022/04/01 01:34:18;;;;;;;7.60;6.28;;;;;;;18.01;30.27;98840.91;5054940;28;20404;-70
2022/04/01 01:36:44;;;;;;;9.13;6.82;;;;;;;18.18;30.38;98835.34;5053745;28;20029;-72
2022/04/01 01:39:10;;;;;;;6.68;5.95;;;;;;;18.32;30.25;98844.34;5053818;28;20527;-72
2022/04/01 01:41:35;;;;;;;6.93;5.70;;;;;;;18.47;29.98;98853.16;5054380;28;20107;-71
2022/04/01 01:44:00;;;;;;;8.43;5.35;;;;;;;18.58;29.95;98851.84;5054756;28;20037;-71
2022/04/01 01:46:26;;;;;;;7.43;6.55;;;;;;;18.67;29.93;98852.56;5054245;28;20400;-72
2022/04/01 01:48:52;;;;;;;9.27;6.15;;;;;;;18.76;30.11;98862.13;5054395;28;20082;-72
2022/04/01 01:56:46;;;;;;;9.15;6.45;;;;;;;18.87;30.47;98856.28;5054367;28;20032;-72
2022/04/01 01:59:12;;;;;;;8.20;6.40;;;;;;;18.90;30.45;98865.78;5054490;28;20525;-72
2022/04/01 02:01:39;;;;;;;6.57;5.88;;;;;;;18.91;30.52;98854.84;5047851;28;20033;-70
2022/04/01 02:04:05;;;;;;;7.57;6.78;;;;;;;18.94;30.52;98855.50;5050250;28;20029;-71
2022/04/01 02:06:30;;;;;;;7.70;6.55;;;;;;;18.97;30.89;98855.97;5053874;28;20036;-71
2022/04/01 02:08:56;;;;;;;8.02;6.55;;;;;;;18.99;30.51;98866.53;5054023;28;20498;-70
2022/04/01 02:11:22;;;;;;;7.45;6.30;;;;;;;18.99;30.62;98861.16;5053584;28;20122;-71
2022/04/01 02:13:48;;;;;;;7.88;5.07;;;;;;;19.00;30.46;98860.94;5054069;28;20032;-71
2022/04/01 02:16:14;;;;;;;4.97;4.05;;;;;;;19.01;30.64;98864.47;5054094;28;20099;-71
2022/04/01 02:18:41;;;;;;;4.95;4.25;;;;;;;19.03;30.61;98870.47;5053835;28;20488;-71
2022/04/01 02:21:10;;;;;;;4.40;4.00;;;;;;;19.04;30.60;98872.16;5053493;28;20094;-71
2022/04/01 02:23:40;;;;;;;4.97;3.85;;;;;;;19.04;30.48;98866.78;5052982;28;20106;-70
2022/04/01 02:26:05;;;;;;;5.05;3.40;;;;;;;19.05;30.62;98879.97;5052821;28;20454;-71
2022/04/01 02:28:31;;;;;;;5.28;3.38;;;;;;;19.06;30.48;98873.59;5053641;28;20121;-70
2022/04/01 02:30:57;;;;;;;3.53;2.97;;;;;;;19.08;30.71;98864.53;5053552;28;20427;-70
2022/04/01 02:33:22;;;;;;;3.80;3.08;;;;;;;19.08;30.56;98873.41;5053362;28;20045;-71
2022/04/01 02:35:48;;;;;;;3.97;3.45;;;;;;;19.08;30.53;98872.59;5054143;28;20068;-70
2022/04/01 02:38:14;;;;;;;5.13;3.63;;;;;;;19.09;30.63;98868.88;5035522;28;20039;-70
2022/04/01 02:40:39;;;;;;;3.50;2.78;;;;;;;19.07;30.56;98863.69;5053485;28;20063;-69
2022/04/01 02:43:05;;;;;;;3.40;2.97;;;;;;;19.11;30.84;98877.56;5052821;28;20091;-68
2022/04/01 02:45:30;;;;;;;3.50;2.97;;;;;;;19.13;30.69;98872.81;5053561;28;20036;-69
2022/04/01 02:47:56;;;;;;;3.85;3.00;;;;;;;19.13;30.82;98873.66;5052292;28;20037;-69
2022/04/01 02:50:22;;;;;;;3.95;3.05;;;;;;;19.12;30.77;98866.63;5052215;28;20120;-69
2022/04/01 02:52:47;;;;;;;3.40;2.97;;;;;;;19.14;30.82;98871.78;5043446;28;20033;-70
2022/04/01 02:55:13;;;;;;;4.53;3.47;;;;;;;19.15;30.99;98876.97;5053453;28;20506;-69
2022/04/01 02:57:38;;;;;;;4.82;3.60;;;;;;;19.16;30.99;98877.78;5023840;28;20036;-69
2022/04/01 03:00:09;;;;;;;4.22;3.65;;;;;;;19.16;30.98;98884.00;5033673;28;20033;-69
2022/04/01 03:02:36;;;;;;;5.43;4.20;;;;;;;19.15;30.84;98879.66;5047132;28;20032;-69
2022/04/01 03:05:03;;;;;;;4.55;3.85;;;;;;;19.17;30.92;98882.13;5053216;28;20029;-69
2022/04/01 03:07:29;;;;;;;4.13;3.60;;;;;;;19.17;31.01;98885.66;5052417;28;20029;-70
2022/04/01 03:09:54;;;;;;;4.47;3.83;;;;;;;19.18;30.91;98894.53;5052927;28;20032;-70
2022/04/01 03:12:19;;;;;;;5.00;4.00;;;;;;;19.19;30.84;98891.63;5052754;28;20551;-71
2022/04/01 03:14:45;;;;;;;4.97;4.03;;;;;;;19.18;30.92;98887.34;5053061;28;20032;-71
2022/04/01 03:17:11;;;;;;;5.18;3.97;;;;;;;19.17;30.65;98885.66;5052364;28;20024;-71
2022/04/01 03:19:39;;;;;;;5.03;4.45;;;;;;;19.19;30.77;98888.97;5052910;28;20091;-72
2022/04/01 03:22:05;;;;;;;5.28;3.80;;;;;;;19.19;30.36;98883.59;5052360;28;20036;-71
2022/04/01 03:24:31;;;;;;;5.40;3.95;;;;;;;19.20;30.21;98889.81;5053075;28;20115;-71
2022/04/01 03:26:57;;;;;;;4.57;4.15;;;;;;;19.22;30.40;98901.19;5052076;28;20048;-72
2022/04/01 03:29:22;;;;;;;5.90;4.03;;;;;;;19.21;30.25;98888.78;5052178;28;20032;-72
2022/04/01 03:31:48;;;;;;;4.95;4.13;;;;;;;19.21;30.25;98897.66;5052125;28;20040;-72
2022/04/01 03:34:14;;;;;;;4.50;4.07;;;;;;;19.23;30.42;98893.94;5052416;28;20108;-73
2022/04/01 03:36:40;;;;;;;4.93;4.18;;;;;;;19.23;30.35;98894.78;5033205;28;20112;-71
2022/04/01 03:39:06;;;;;;;4.53;4.00;;;;;;;19.23;30.41;98897.47;5052158;28;20055;-71
2022/04/01 03:41:33;;;;;;;5.60;4.38;;;;;;;19.26;30.32;98898.94;5035851;28;20029;-72
2022/04/01 03:44:00;;;;;;;4.90;4.38;;;;;;;19.24;30.34;98895.59;5033037;28;20044;-72
2022/04/01 03:46:44;;;;;;;4.78;4.00;;;;;;;19.23;29.95;98902.84;5032303;28;20140;-70
2022/04/01 03:49:13;;;;;;;4.68;3.80;;;;;;;19.24;30.32;98900.97;5049765;28;20063;-70
2022/04/01 03:51:39;;;;;;;4.47;3.75;;;;;;;19.21;29.84;98903.00;5051999;28;20081;-70
2022/04/01 03:54:05;;;;;;;4.55;3.92;;;;;;;19.22;29.49;98909.22;5052543;28;20045;-71
2022/04/01 03:56:36;;;;;;;4.82;4.00;;;;;;;19.21;29.90;98903.00;5052165;28;20033;-71
2022/04/01 03:59:07;;;;;;;4.72;4.15;;;;;;;19.23;29.88;98907.34;5052562;28;20480;-70
2022/04/01 04:01:37;;;;;;;6.13;4.45;;;;;;;19.23;29.83;98910.03;5052034;28;20044;-71
2022/04/01 04:04:04;;;;;;;4.97;4.10;;;;;;;19.19;30.41;98899.69;5052396;28;20039;-70
2022/04/01 04:06:32;;;;;;;5.88;5.28;;;;;;;19.24;30.40;98898.28;5051969;28;20158;-69
2022/04/01 04:09:01;;;;;;;5.45;4.88;;;;;;;19.25;30.42;98902.63;5052085;28;20029;-70
2022/04/01 04:11:29;;;;;;;5.28;4.78;;;;;;;19.25;30.35;98902.63;5051536;28;20032;-69
2022/04/01 04:13:57;;;;;;;5.25;4.72;;;;;;;19.26;30.39;98905.13;5052483;28;20036;-70
2022/04/01 04:16:36;;;;;;;5.75;5.07;;;;;;;19.27;30.28;98895.22;5051953;28;20053;-69
2022/04/01 04:19:10;;;;;;;4.80;4.30;;;;;;;19.28;30.72;98896.88;5052537;28;20065;-69
2022/04/01 04:21:47;;;;;;;5.85;4.78;;;;;;;19.28;30.44;98902.25;5052264;28;20033;-69
2022/04/01 04:24:25;;;;;;;5.20;4.63;;;;;;;19.26;30.01;98915.88;5052231;28;20055;-69
2022/04/01 04:26:51;;;;;;;5.28;4.35;;;;;;;19.25;30.09;98908.00;5052096;28;20029;-69
2022/04/01 04:29:18;;;;;;;6.40;4.80;;;;;;;19.26;30.47;98904.28;5049407;28;20033;-69
2022/04/01 04:31:59;;;;;;;4.75;4.25;;;;;;;19.27;30.66;98911.31;5031851;28;20115;-69
2022/04/01 04:34:34;;;;;;;5.25;4.45;;;;;;;19.25;30.32;98916.03;5050570;28;20040;-70
2022/04/01 04:37:01;;;;;;;5.40;4.53;;;;;;;19.26;30.38;98926.59;5051212;28;20040;-70
2022/04/01 04:39:35;;;;;;;4.78;4.25;;;;;;;19.26;30.36;98931.13;5052081;28;20033;-70
2022/04/01 04:42:03;;;;;;;4.20;3.67;;;;;;;19.26;30.14;98931.13;5051706;28;20033;-70
2022/04/01 04:44:30;;;;;;;4.93;4.15;;;;;;;19.25;30.60;98934.81;5051999;28;20045;-71
2022/04/01 04:47:03;;;;;;;4.85;4.07;;;;;;;19.27;30.47;98932.78;5051285;28;20041;-70
2022/04/01 04:49:29;;;;;;;5.35;3.97;;;;;;;19.27;30.25;98927.41;5034742;28;20227;-71
2022/04/01 04:51:56;;;;;;;5.20;4.07;;;;;;;19.27;30.14;98930.91;5035572;28;20550;-71
2022/04/01 04:54:26;;;;;;;4.28;3.88;;;;;;;19.28;30.26;98937.13;5038334;28;20036;-70
2022/04/01 04:56:55;;;;;;;4.50;4.00;;;;;;;19.27;30.33;98940.81;5054751;28;20078;-70
2022/04/01 04:59:22;;;;;;;4.07;3.67;;;;;;;19.30;30.46;98948.50;5055250;28;20362;-70
2022/04/01 05:02:07;;;;;;;5.55;3.78;;;;;;;19.30;29.94;98943.94;5047094;28;20087;-70
2022/04/01 05:04:44;;;;;;;4.93;3.92;;;;;;;19.30;29.98;98943.13;5036450;28;20145;-70
2022/04/01 05:07:29;;;;;;;5.72;3.90;;;;;;;19.30;29.91;98952.00;5055181;28;20094;-70
2022/04/01 05:10:16;;;;;;;3.88;3.40;;;;;;;19.30;29.84;98953.84;5055395;28;20033;-70
2022/04/01 05:13:02;;;;;;;5.72;3.42;;;;;;;19.32;30.11;98957.19;5055068;28;20395;-70
2022/04/01 05:15:34;;;;;;;4.93;3.75;;;;;;;19.33;30.01;98958.84;5054748;28;20025;-71
2022/04/01 05:18:23;;;;;;;4.63;3.60;;;;;;;19.33;30.36;98953.47;5054630;28;20043;-71
2022/04/01 05:20:56;;;;;;;4.65;3.45;;;;;;;19.33;30.19;98958.84;5055466;28;20029;-70
2022/04/01 05:23:42;;;;;;;4.13;3.70;;;;;;;19.32;30.51;98955.31;5054566;28;20431;-71
2022/04/01 05:26:13;;;;;;;4.28;3.58;;;;;;;19.34;30.00;98958.63;5053939;28;20053;-71
2022/04/01 05:29:00;;;;;;;5.10;4.00;;;;;;;19.35;30.02;98957.63;5054175;28;20036;-69
2022/04/01 05:31:26;;;;;;;4.38;3.25;;;;;;;19.36;29.51;98964.66;5054541;28;20068;-70
2022/04/01 05:34:09;;;;;;;5.25;4.40;;;;;;;19.36;29.69;98958.44;5054327;28;20491;-72
2022/04/01 05:36:37;;;;;;;4.70;3.53;;;;;;;19.38;29.51;98953.72;5054407;28;20036;-72
2022/04/01 05:39:04;;;;;;;4.70;3.67;;;;;;;19.39;29.49;98963.41;5054029;28;20068;-69
2022/04/01 05:41:30;;;;;;;3.85;3.50;;;;;;;19.41;29.45;98960.56;5053969;28;20036;-72
2022/04/01 05:43:57;;;;;;;6.18;4.35;;;;;;;19.42;29.21;98962.19;5054572;28;20037;-70
2022/04/01 05:46:25;;;;;;;4.50;3.90;;;;;;;19.41;29.19;98958.69;5054277;28;20048;-70
2022/04/01 05:48:57;;;;;;;5.43;4.20;;;;;;;19.45;29.19;98959.13;5054617;28;20028;-70
2022/04/01 05:51:24;;;;;;;5.35;3.95;;;;;;;19.46;29.06;98974.22;5043936;28;21402;-70
2022/04/01 05:53:52;;;;;;;7.15;4.63;;;;;;;19.45;28.87;98967.19;5053915;28;20031;-70
2022/04/01 05:56:18;;;;;;;6.35;4.75;;;;;;;19.44;28.93;98963.69;5054429;28;20029;-71
2022/04/01 05:58:44;;;;;;;5.03;3.70;;;;;;;19.41;28.86;98958.69;5036354;28;20408;-72
2022/04/01 06:01:12;;;;;;;4.90;3.75;;;;;;;19.45;29.20;98964.50;5053256;28;20037;-70
2022/04/01 06:03:59;;;;;;;5.75;4.38;;;;;;;19.46;29.40;98964.31;5053579;28;20044;-70
2022/04/01 06:06:42;;;;;;;4.47;3.75;;;;;;;19.46;29.78;98980.41;5053211;28;20064;-71
2022/04/01 06:09:35;;;;;;;5.00;3.67;;;;;;;19.46;29.92;98971.53;5054000;28;20114;-71
2022/04/01 06:12:24;;;;;;;4.30;3.50;;;;;;;19.47;29.88;98971.34;5053947;28;20043;-69
2022/04/01 06:15:26;;;;;;;4.13;3.63;;;;;;;19.49;29.67;98979.19;5033953;28;20409;-70
2022/04/01 06:18:04;;;;;;;4.25;3.67;;;;;;;19.47;29.21;98967.81;5034029;28;20043;-70
2022/04/01 06:20:37;;;;;;;3.83;3.38;;;;;;;19.47;29.08;98966.00;5033798;28;20037;-69
2022/04/01 06:23:23;;;;;;;4.82;3.65;;;;;;;19.49;29.70;98965.78;5049043;28;20060;-70
2022/04/01 06:25:57;;;;;;;4.43;3.92;;;;;;;19.51;29.73;98969.09;5053054;28;20041;-70
2022/04/01 06:28:24;;;;;;;4.10;3.70;;;;;;;19.51;29.47;98969.09;5033793;28;20041;-70
2022/04/01 06:31:02;;;;;;;4.60;3.70;;;;;;;19.52;29.76;98957.34;5033598;28;20053;-70
2022/04/01 06:33:54;;;;;;;4.07;3.40;;;;;;;19.54;30.11;98963.34;5046685;28;20404;-70
2022/04/01 06:36:40;;;;;;;4.15;3.35;;;;;;;19.56;29.79;98961.28;5053607;28;20423;-70
2022/04/01 06:39:07;;;;;;;4.97;3.63;;;;;;;19.57;29.75;98954.91;5049521;28;20045;-71
2022/04/01 06:41:46;;;;;;;4.25;3.75;;;;;;;19.60;29.67;98964.44;5036074;28;20102;-70
2022/04/01 06:44:12;;;;;;;5.78;3.60;;;;;;;19.60;29.50;98962.56;5033470;28;20036;-70
2022/04/01 06:46:37;;;;;;;3.33;3.00;;;;;;;19.63;29.53;98958.69;5033282;28;20116;-70
2022/04/01 06:49:08;;;;;;;4.72;3.83;;;;;;;19.65;29.22;98957.47;5050499;28;20036;-70
2022/04/01 06:51:36;;;;;;;5.25;3.40;;;;;;;19.67;29.28;98952.72;5053102;28;20407;-70
2022/04/01 06:54:02;;;;;;;5.32;3.25;;;;;;;19.72;29.19;98965.56;5052289;28;20399;-70
2022/04/01 06:56:27;;;;;;;4.13;3.50;;;;;;;19.76;28.85;98960.63;5052921;28;20033;-70
2022/04/01 06:58:53;;;;;;;5.60;4.22;;;;;;;19.76;28.82;98958.78;5053025;28;20037;-68
2022/04/01 07:01:18;;;;;;;5.55;3.63;;;;;;;19.80;29.08;98956.53;5052695;28;20036;-70
2022/04/01 07:03:44;;;;;;;5.15;3.47;;;;;;;19.81;28.55;98950.13;5051802;28;20025;-69
2022/04/01 07:06:09;;;;;;;5.68;3.50;;;;;;;19.81;28.76;98958.19;5052767;28;20476;-70
2022/04/01 07:08:35;;;;;;;4.50;3.80;;;;;;;19.80;28.76;98949.28;5052549;28;20037;-70
2022/04/01 07:11:01;;;;;;;5.93;4.03;;;;;;;19.79;28.59;98958.38;5052611;28;20559;-68
2022/04/01 07:13:26;;;;;;;5.00;4.25;;;;;;;19.81;28.91;98963.56;5052479;28;20116;-69
2022/04/01 07:15:53;;;;;;;6.43;3.80;;;;;;;19.82;28.89;98967.91;5052811;28;20040;-71
2022/04/01 07:18:21;;;;;;;4.75;3.67;;;;;;;19.84;29.26;98963.19;5052348;28;20072;-72
2022/04/01 07:20:47;;;;;;;6.30;4.20;;;;;;;19.84;28.95;98971.22;5052920;28;20029;-70
2022/04/01 07:23:12;;;;;;;5.55;3.33;;;;;;;19.85;28.46;98956.78;5051744;28;20530;-70
2022/04/01 07:25:38;;;;;;;6.95;3.30;;;;;;;19.86;28.69;98957.59;5052292;28;20417;-69
2022/04/01 07:28:04;;;;;;;4.55;3.28;;;;;;;19.87;28.43;98961.97;5051995;28;20040;-70
2022/04/01 07:30:29;;;;;;;5.05;3.58;;;;;;;19.86;28.44;98946.88;5039386;28;20041;-69
2022/04/01 07:32:58;;;;;;;7.18;3.72;;;;;;;19.86;28.22;98961.09;5032897;28;20037;-71
2022/04/01 07:35:25;;;;;;;4.63;3.50;;;;;;;19.85;28.16;98964.84;5032915;28;20056;-70
2022/04/01 07:37:51;;;;;;;4.15;3.75;;;;;;;19.86;28.07;98962.97;5042793;28;20020;-69
2022/04/01 07:40:18;;;;;;;4.63;3.45;;;;;;;19.87;28.60;98970.84;5052016;28;20067;-69
2022/04/01 07:42:44;;;;;;;4.85;3.00;;;;;;;19.88;28.30;98971.69;5052264;28;20036;-70
2022/04/01 07:45:11;;;;;;;5.13;4.22;;;;;;;19.87;28.27;98968.16;5052617;28;20059;-71
2022/04/01 07:47:37;;;;;;;5.55;4.18;;;;;;;19.88;28.40;98971.69;5033757;28;20032;-69
2022/04/01 07:50:05;;;;;;;6.13;3.72;;;;;;;19.90;28.30;98966.97;5052537;28;20032;-69
2022/04/01 07:52:32;;;;;;;4.30;3.42;;;;;;;19.91;28.48;98972.13;5052600;28;20175;-70
2022/04/01 07:54:58;;;;;;;5.07;3.67;;;;;;;19.92;28.45;98972.97;5052252;28;20061;-70
2022/04/01 07:57:24;;;;;;;4.55;3.35;;;;;;;19.92;28.51;98984.53;5051082;28;20017;-70
2022/04/01 07:59:49;;;;;;;3.85;3.47;;;;;;;19.92;28.57;98976.47;5052467;28;20032;-72
2022/04/01 08:02:16;;;;;;;4.75;4.20;;;;;;;19.91;28.52;98968.63;5048657;28;20120;-69
2022/04/01 08:04:42;;;;;;;4.45;3.47;;;;;;;19.92;28.58;98956.88;5052435;28;20124;-70
2022/04/01 08:07:08;;;;;;;4.30;3.25;;;;;;;19.97;28.49;98970.50;5052238;28;20463;-70
2022/04/01 08:09:34;;;;;;;4.35;3.53;;;;;;;19.99;28.54;98971.16;5052153;28;20025;-70
2022/04/01 08:12:03;;;;;;;5.80;3.80;;;;;;;20.00;28.25;98974.69;5051645;28;20036;-69
2022/04/01 08:14:29;;;;;;;4.43;3.83;;;;;;;20.01;28.23;98969.09;5051343;28;20079;-70
2022/04/01 08:16:56;;;;;;;4.60;3.38;;;;;;;20.05;28.41;98973.06;5052151;28;20061;-70
2022/04/01 08:19:22;;;;;;;4.95;3.63;;;;;;;20.09;28.25;98979.69;5051931;28;20500;-69
2022/04/01 08:21:49;;;;;;;4.38;3.95;;;;;;;20.12;28.37;98970.41;5051438;28;20447;-70
2022/04/01 08:24:16;;;;;;;5.38;3.50;;;;;;;20.15;28.25;98971.88;5054478;28;20053;-71
2022/04/01 08:26:42;;;;;;;4.93;3.17;;;;;;;20.16;28.29;98971.66;5056072;28;20111;-70
2022/04/01 08:29:07;;;;;;;4.93;2.90;;;;;;;20.19;28.03;98970.47;5056136;28;20466;-70
2022/04/01 08:31:33;;;;;;;5.93;3.08;;;;;;;20.20;28.51;98958.69;5055779;28;20090;-69
2022/04/01 08:33:59;;;;;;;4.53;3.35;;;;;;;20.23;28.36;98972.53;5055856;28;20103;-69
2022/04/01 08:36:26;;;;;;;5.95;3.35;;;;;;;20.27;28.33;98978.34;5055703;28;20029;-69
2022/04/01 08:38:51;;;;;;;3.70;3.00;;;;;;;20.28;28.21;98962.03;5055638;28;20032;-69
2022/04/01 08:41:19;;;;;;;3.67;2.78;;;;;;;20.34;27.92;98973.84;5055401;28;20056;-69
2022/04/01 08:43:47;;;;;;;3.83;2.80;;;;;;;20.39;27.79;98970.56;5035756;28;20048;-68
2022/04/01 08:46:14;;;;;;;3.50;2.80;;;;;;;20.42;27.95;98979.06;5035680;28;20037;-70
2022/04/01 08:48:41;;;;;;;5.70;3.10;;;;;;;20.44;27.43;98965.41;5035576;28;20033;-70
2022/04/01 08:51:07;;;;;;;3.85;3.10;;;;;;;20.46;27.51;98968.72;5040290;28;20032;-70
2022/04/01 08:53:40;;;;;;;4.18;2.95;;;;;;;20.48;27.41;98974.72;5055437;28;20128;-70
2022/04/01 08:56:06;;;;;;;4.20;2.70;;;;;;;20.48;27.41;98966.66;5055360;28;20086;-70
2022/04/01 08:58:33;;;;;;;3.90;2.63;;;;;;;20.49;27.48;98971.03;5054832;28;20044;-69
2022/04/01 09:01:02;;;;;;;4.70;3.25;;;;;;;20.52;27.23;98984.06;5055107;28;20051;-69
2022/04/01 09:03:28;;;;;;;4.22;3.13;;;;;;;20.52;27.27;98969.78;5054375;28;20396;-67
2022/04/01 09:05:59;;;;;;;4.00;2.95;;;;;;;20.54;27.44;98976.63;5054950;28;20048;-68
2022/04/01 09:08:32;;;;;;;4.28;2.47;;;;;;;20.53;27.49;98980.34;5048612;28;20029;-69
2022/04/01 09:11:03;;;;;;;4.72;3.05;;;;;;;20.58;27.69;98985.97;5050711;28;20094;-68
2022/04/01 09:13:47;;;;;;;4.82;3.33;;;;;;;20.61;27.78;98990.09;5053982;28;20538;-68
2022/04/01 09:16:36;;;;;;;4.60;2.97;;;;;;;20.65;27.77;98982.47;5049864;28;20040;-69
2022/04/01 09:19:04;;;;;;;3.33;2.50;;;;;;;20.66;27.29;98987.63;5053305;28;20031;-67
2022/04/01 09:21:32;;;;;;;6.63;4.40;;;;;;;20.69;26.92;98987.22;5054663;28;20041;-68
2022/04/01 09:23:59;;;;;;;4.47;3.28;;;;;;;20.71;26.95;98982.47;5054410;28;20040;-67
2022/04/01 09:26:31;;;;;;;5.45;2.97;;;;;;;20.72;27.21;98983.34;5054487;28;20458;-67
2022/04/01 09:28:58;;;;;;;4.35;2.90;;;;;;;20.72;27.43;98972.56;5052472;28;20036;-68
2022/04/01 09:31:25;;;;;;;4.03;2.97;;;;;;;20.76;26.87;98983.78;5053020;28;20037;-67
2022/04/01 09:33:52;;;;;;;3.08;2.13;;;;;;;20.77;26.76;98991.63;5047804;28;20098;-66
2022/04/01 09:36:25;;;;;;;2.95;2.55;;;;;;;20.80;26.81;98985.03;5053665;28;20032;-68
2022/04/01 09:38:58;;;;;;;4.30;2.90;;;;;;;20.81;26.73;98976.75;5041945;28;20040;-68
2022/04/01 09:41:32;;;;;;;3.70;3.03;;;;;;;20.85;26.70;98977.19;5046854;28;20024;-69
2022/04/01 09:44:03;;;;;;;4.03;3.17;;;;;;;20.88;26.67;98971.41;5053401;28;20029;-69
2022/04/01 09:46:29;;;;;;;4.05;2.88;;;;;;;20.91;26.75;98976.38;5053506;28;20028;-68
2022/04/01 09:48:56;;;;;;;3.05;2.75;;;;;;;20.96;26.40;98971.22;5052280;28;20045;-69
2022/04/01 09:51:23;;;;;;;7.97;2.40;;;;;;;20.97;26.46;98953.22;5039201;28;20032;-69
2022/04/01 09:53:53;;;;;;;3.90;2.95;;;;;;;21.05;26.35;98955.72;5034341;28;20033;-68
2022/04/01 09:56:34;;;;;;;3.47;2.78;;;;;;;21.08;26.26;98957.19;5048953;28;20032;-69
2022/04/01 09:58:59;;;;;;;4.35;2.80;;;;;;;21.10;26.20;98955.94;5050246;28;20033;-67
2022/04/01 10:01:25;;;;;;;3.40;2.85;;;;;;;21.12;26.11;98961.13;5053649;28;20032;-68
2022/04/01 10:03:51;;;;;;;4.65;3.38;;;;;;;21.13;26.00;98954.72;5053149;28;20514;-69
2022/04/01 10:06:16;;;;;;;3.47;2.33;;;;;;;21.15;26.16;98958.88;5048258;28;20116;-69
2022/04/01 10:08:42;;;;;;;3.13;2.80;;;;;;;21.16;26.15;98954.31;5053840;28;20509;-68
2022/04/01 10:11:08;;;;;;;5.25;2.85;;;;;;;21.18;26.13;98949.56;5052953;28;20033;-68
2022/04/01 10:13:34;;;;;;;5.78;2.90;;;;;;;21.19;26.18;98952.03;5053730;28;20040;-67
2022/04/01 10:16:01;;;;;;;3.53;2.80;;;;;;;21.21;25.64;98949.16;5053636;28;20102;-67
2022/04/01 10:18:28;;;;;;;3.58;2.50;;;;;;;21.21;26.15;98949.16;5039933;28;20036;-68
2022/04/01 10:20:55;;;;;;;4.63;2.90;;;;;;;21.19;26.24;98941.25;5043301;28;20036;-69
2022/04/01 10:23:24;;;;;;;3.38;2.58;;;;;;;21.19;25.90;98943.94;5053368;28;20516;-69
2022/04/01 10:26:07;;;;;;;4.72;2.97;;;;;;;21.22;25.95;98942.75;5051017;28;20060;-68
2022/04/01 10:28:33;;;;;;;6.70;2.03;;;;;;;21.00;27.24;98934.81;5049376;28;20037;-68
2022/04/01 10:31:00;;;;;;;2.47;1.95;;;;;;;20.63;27.46;98933.44;5045830;28;20453;-70
2022/04/01 10:33:36;;;;;;;2.53;2.08;;;;;;;20.30;28.19;98923.38;5049356;28;20395;-72
2022/04/01 10:36:26;;;;;;;6.00;2.67;;;;;;;19.98;28.49;98915.78;5046122;28;20032;-68
2022/04/01 10:39:00;;;;;;;6.45;3.05;;;;;;;19.72;29.01;98925.31;5050664;28;20044;-69
2022/04/01 10:41:26;;;;;;;4.88;3.38;;;;;;;19.54;29.51;98920.44;5050595;28;20029;-71
2022/04/01 10:43:55;;;;;;;4.75;2.95;;;;;;;19.41;29.64;98917.63;5050281;28;20043;-69
2022/04/01 10:46:20;;;;;;;4.13;2.80;;;;;;;19.29;29.63;98903.91;5048700;28;20059;-68
2022/04/01 10:52:10;;;;;;;5.80;2.65;;;;;;;19.18;29.43;98906.09;5052321;28;20037;-70
2022/04/01 10:54:42;;;;;;;4.25;3.03;;;;;;;19.16;29.43;98893.88;5035941;28;20475;-67
2022/04/01 10:57:09;;;;;;;6.10;2.40;;;;;;;19.16;29.65;98893.88;5052037;28;20029;-70
2022/04/01 10:59:50;;;;;;;5.30;3.00;;;;;;;19.25;29.58;98895.44;5053218;28;20496;-69
2022/04/01 11:02:19;;;;;;;;;;;;;;;19.26;29.79;98889.03;5050172;28;20078;-69
2022/04/01 11:04:46;;;;;;;5.90;2.40;;;;;;;19.38;29.75;98889.31;5052612;28;20343;-69
2022/04/01 11:07:28;;;;;;;4.97;2.80;;;;;;;19.41;29.51;98888.94;5050669;28;20589;-69
2022/04/01 11:10:01;;;;;;;3.80;2.25;;;;;;;19.40;28.99;98891.84;5033505;28;20041;-69
2022/04/01 11:12:41;;;;;;;3.28;2.10;;;;;;;19.35;28.97;98882.50;5037093;28;20182;-69
2022/04/01 11:15:12;;;;;;;4.32;2.30;;;;;;;19.39;29.03;98877.56;5052628;28;20151;-69
2022/04/01 11:17:37;;;;;;;4.65;2.90;;;;;;;19.40;28.62;98884.59;5051815;28;20032;-69
2022/04/01 11:20:32;;;;;;;6.53;2.72;;;;;;;19.42;29.10;98879.88;5052888;28;20123;-69
2022/04/01 11:23:00;;;;;;;3.90;2.20;;;;;;;19.44;28.93;98877.84;5051945;28;20036;-69
2022/04/01 11:25:31;;;;;;;9.98;2.53;;;;;;;19.45;28.71;98868.75;5052274;28;20067;-68
2022/04/01 11:28:08;;;;;;;3.38;2.20;;;;;;;19.41;29.22;98864.00;5051789;28;20061;-70
2022/04/01 11:30:52;;;;;;;4.00;2.53;;;;;;;19.40;29.03;98855.09;5052544;28;20446;-71
2022/04/01 11:33:19;;;;;;;3.10;2.42;;;;;;;19.35;28.88;98842.28;5032462;28;20393;-69
2022/04/01 11:35:49;;;;;;;3.88;2.08;;;;;;;19.40;29.17;98841.69;5032398;28;20033;-69
2022/04/01 11:38:18;;;;;;;5.43;2.50;;;;;;;19.46;28.93;98834.69;5046783;28;20032;-69
2022/04/01 11:40:46;;;;;;;3.28;1.90;;;;;;;19.45;29.20;98830.34;5052332;28;20032;-68
2022/04/01 11:43:17;;;;;;;4.00;1.83;;;;;;;19.54;29.29;98836.41;5034461;28;20037;-69
2022/04/01 11:45:48;;;;;;;3.00;2.10;;;;;;;19.56;28.96;98837.84;5052621;28;20040;-68
2022/04/01 11:48:28;;;;;;;4.43;2.28;;;;;;;19.58;28.24;98826.94;5051411;28;20033;-70
2022/04/01 11:50:59;;;;;;;2.67;1.45;;;;;;;19.57;28.75;98820.72;5052770;28;20492;-70
2022/04/01 11:53:43;;;;;;;4.95;1.90;;;;;;;19.55;28.13;98817.44;5051593;28;20083;-69